Time;durP1;ratioP1;P1;durP2;ratioP2;P2;SDS_P1;SDS_P2;PMS_P1;PMS_P2;Temp;Humidity;BMP_temperature;BMP_pressure;BME280_temperature;BME280_humidity;BME280_pressure;Samples;Min_cycle;Max_cycle;Signal;HPM_P1;HPM_P2
2021/11/09 00:01:37;;;;;;;24.23;15.77;;;3.20;99.90;;;;;;5024377;28;20022;-82
2021/11/09 00:04:06;;;;;;;22.05;11.52;;;3.30;99.90;;;;;;5023378;28;20032;-81
2021/11/09 00:06:37;;;;;;;21.52;10.70;;;3.20;99.90;;;;;;5027059;28;20129;-80
2021/11/09 00:09:08;;;;;;;19.63;10.23;;;3.10;99.90;;;;;;5024933;28;20026;-80
2021/11/09 00:11:34;;;;;;;;;;;3.20;99.90;;;;;;5041269;28;20026;-82
2021/11/09 00:14:00;;;;;;;20.50;10.63;;;3.10;99.90;;;;;;5020680;28;19920;-82
2021/11/09 00:16:30;;;;;;;20.83;11.38;;;3.10;99.90;;;;;;5031499;28;20056;-81
2021/11/09 00:18:57;;;;;;;19.08;10.98;;;3.10;99.90;;;;;;5017566;28;20022;-71
2021/11/09 00:21:23;;;;;;;24.88;12.25;;;3.10;99.90;;;;;;5011075;28;20034;-73
2021/11/09 00:23:49;;;;;;;21.15;11.15;;;3.00;99.90;;;;;;5006682;28;20029;-74
2021/11/09 00:26:18;;;;;;;23.60;11.07;;;3.00;99.90;;;;;;5008034;28;20033;-73
2021/11/09 00:28:44;;;;;;;19.13;10.95;;;2.90;99.90;;;;;;4999991;28;20030;-74
2021/11/09 00:31:09;;;;;;;14.80;10.77;;;2.90;99.90;;;;;;5013889;28;20037;-74
2021/11/09 00:33:35;;;;;;;19.70;10.07;;;2.80;99.90;;;;;;5014704;28;20116;-73
2021/11/09 00:36:02;;;;;;;18.15;10.85;;;2.80;99.90;;;;;;5008735;28;20481;-73
2021/11/09 00:38:28;;;;;;;18.20;11.95;;;2.80;99.90;;;;;;5013001;28;20030;-73
2021/11/09 00:40:56;;;;;;;23.20;13.07;;;2.80;99.90;;;;;;5008636;28;20023;-73
2021/11/09 00:43:22;;;;;;;17.85;11.82;;;2.80;99.90;;;;;;5005324;28;20253;-73
2021/11/09 00:45:47;;;;;;;19.38;12.75;;;2.70;99.90;;;;;;5004500;28;20481;-74
2021/11/09 00:48:13;;;;;;;25.33;11.88;;;2.70;99.90;;;;;;5009677;28;20031;-76
2021/11/09 00:50:41;;;;;;;21.17;13.18;;;2.70;99.90;;;;;;5010315;28;20037;-74
2021/11/09 00:53:08;;;;;;;21.20;12.77;;;2.60;99.90;;;;;;5008613;28;20061;-74
2021/11/09 00:55:34;;;;;;;20.15;12.40;;;2.60;99.90;;;;;;5007241;28;20385;-76
2021/11/09 00:58:00;;;;;;;22.33;11.10;;;2.80;99.90;;;;;;5008013;28;20030;-76
2021/11/09 01:00:28;;;;;;;23.48;12.57;;;2.80;99.90;;;;;;5009311;28;20033;-76
2021/11/09 01:02:55;;;;;;;26.85;13.15;;;2.70;99.90;;;;;;5011318;28;20030;-76
2021/11/09 01:05:25;;;;;;;21.38;13.50;;;2.80;99.90;;;;;;5006443;28;20025;-76
2021/11/09 01:07:56;;;;;;;20.35;11.48;;;2.80;99.90;;;;;;5010699;28;20045;-76
2021/11/09 01:10:25;;;;;;;26.00;12.25;;;2.90;99.90;;;;;;5008900;28;20018;-76
2021/11/09 01:12:51;;;;;;;20.98;13.68;;;2.90;99.90;;;;;;5004544;28;20038;-77
2021/11/09 01:15:17;;;;;;;21.77;13.85;;;3.00;99.90;;;;;;5009966;28;20026;-76
2021/11/09 01:17:42;;;;;;;17.20;12.07;;;3.20;99.90;;;;;;5012364;28;20029;-76
2021/11/09 01:20:10;;;;;;;20.08;11.50;;;3.10;99.90;;;;;;5018103;28;20018;-76
2021/11/09 01:22:36;;;;;;;26.35;13.50;;;3.20;99.90;;;;;;5011575;28;20022;-76
2021/11/09 01:25:04;;;;;;;15.90;11.85;;;3.20;99.90;;;;;;5011788;28;20029;-77
2021/11/09 01:27:31;;;;;;;20.85;12.43;;;3.20;99.90;;;;;;5012342;28;20033;-76
2021/11/09 01:29:56;;;;;;;21.50;11.65;;;3.30;99.90;;;;;;5020264;28;20025;-76
2021/11/09 01:32:22;;;;;;;24.98;13.45;;;3.40;99.90;;;;;;5022484;28;20057;-75
2021/11/09 01:34:48;;;;;;;20.00;11.27;;;3.50;99.90;;;;;;5017605;28;20022;-76
2021/11/09 01:37:14;;;;;;;19.10;11.68;;;3.50;99.90;;;;;;5016533;28;20026;-76
2021/11/09 01:39:39;;;;;;;23.98;13.15;;;3.40;99.90;;;;;;5022703;28;20278;-76
2021/11/09 01:42:05;;;;;;;20.50;11.43;;;3.40;99.90;;;;;;5024427;28;20018;-75
2021/11/09 01:44:30;;;;;;;14.38;10.70;;;3.50;99.90;;;;;;5024935;28;20040;-76
2021/11/09 01:46:56;;;;;;;20.30;10.80;;;3.40;99.90;;;;;;5027051;28;20074;-75
2021/11/09 01:49:22;;;;;;;18.80;10.80;;;3.40;99.90;;;;;;5027789;28;20033;-76
2021/11/09 01:51:48;;;;;;;25.50;15.05;;;3.40;99.90;;;;;;5024903;28;20052;-76
2021/11/09 01:54:14;;;;;;;17.38;11.50;;;3.40;99.90;;;;;;5020884;28;20030;-76
2021/11/09 01:56:39;;;;;;;17.70;10.95;;;3.40;99.90;;;;;;5013591;28;20504;-76
2021/11/09 01:59:06;;;;;;;18.17;11.57;;;3.40;99.90;;;;;;5012797;28;20119;-76
2021/11/09 02:01:33;;;;;;;22.63;11.73;;;3.50;99.90;;;;;;5014800;28;20393;-76
2021/11/09 02:04:01;;;;;;;18.88;11.70;;;3.50;99.90;;;;;;5014461;28;20014;-76
2021/11/09 02:06:27;;;;;;;20.67;11.65;;;3.40;99.90;;;;;;5017829;28;20450;-76
2021/11/09 02:08:59;;;;;;;19.27;11.50;;;3.50;99.90;;;;;;5016482;28;20046;-75
2021/11/09 02:11:25;;;;;;;20.35;12.73;;;3.50;99.90;;;;;;5015870;28;20018;-76
2021/11/09 02:13:51;;;;;;;19.60;12.85;;;3.50;99.90;;;;;;5011858;28;20041;-76
2021/11/09 02:16:16;;;;;;;19.98;12.00;;;3.50;99.90;;;;;;5006476;28;20027;-76
2021/11/09 02:18:42;;;;;;;16.77;11.35;;;3.50;99.90;;;;;;5008938;28;20108;-76
2021/11/09 02:21:11;;;;;;;26.05;10.98;;;3.60;99.90;;;;;;5008231;28;20030;-76
2021/11/09 02:23:43;;;;;;;17.73;11.65;;;3.60;99.90;;;;;;5002695;28;20460;-76
2021/11/09 02:26:13;;;;;;;17.30;10.60;;;3.70;99.90;;;;;;5014048;28;20075;-76
2021/11/09 02:28:40;;;;;;;18.00;11.67;;;3.80;99.90;;;;;;5003347;28;20183;-76
2021/11/09 02:31:07;;;;;;;18.50;10.85;;;3.80;99.90;;;;;;5009925;28;20309;-76
2021/11/09 02:33:34;;;;;;;15.43;9.60;;;3.80;99.90;;;;;;5014768;28;20033;-76
2021/11/09 02:35:59;;;;;;;24.65;11.13;;;3.80;99.90;;;;;;4995983;28;20117;-76
2021/11/09 02:38:26;;;;;;;18.27;10.25;;;3.90;99.90;;;;;;5012838;28;20154;-76
2021/11/09 02:40:52;;;;;;;20.90;10.10;;;3.90;99.90;;;;;;5007447;28;20435;-76
2021/11/09 02:43:18;;;;;;;16.35;9.77;;;3.90;99.90;;;;;;5009144;28;20101;-76
2021/11/09 02:46:14;;;;;;;13.95;9.55;;;3.90;99.90;;;;;;5005879;28;20117;-74
2021/11/09 02:51:39;;;;;;;16.20;10.30;;;3.90;99.90;;;;;;5007882;28;20549;-75
2021/11/09 02:56:39;;;;;;;15.20;9.13;;;3.90;99.90;;;;;;5014023;28;20026;-76
2021/11/09 02:59:26;;;;;;;13.55;9.82;;;4.00;99.90;;;;;;5009917;28;20106;-76
2021/11/09 03:02:09;;;;;;;15.07;9.77;;;3.90;99.90;;;;;;5007427;28;20100;-76
2021/11/09 03:07:12;;;;;;;14.30;9.32;;;3.90;99.90;;;;;;5013723;28;20026;-76
2021/11/09 03:09:54;;;;;;;17.42;11.43;;;3.90;99.90;;;;;;5012697;28;20038;-76
2021/11/09 03:12:21;;;;;;;15.68;9.90;;;3.90;99.90;;;;;;5013948;28;20512;-76
2021/11/09 03:14:47;;;;;;;18.17;10.93;;;4.00;99.90;;;;;;5002756;28;20032;-76
2021/11/09 03:17:17;;;;;;;14.93;10.45;;;3.90;99.90;;;;;;5026471;28;20044;-76
2021/11/09 03:19:48;;;;;;;20.20;10.57;;;3.90;99.90;;;;;;5013497;28;20034;-76
2021/11/09 03:46:53;;;;;;;16.88;12.43;;;3.50;99.90;;;;;;5013258;28;20546;-76
2021/11/09 03:49:21;;;;;;;22.35;11.60;;;3.60;99.90;;;;;;4999728;28;20034;-76
2021/11/09 03:51:47;;;;;;;20.83;11.75;;;3.50;99.90;;;;;;5007824;28;20025;-76
2021/11/09 03:54:15;;;;;;;21.08;11.88;;;3.50;99.90;;;;;;5008428;28;20076;-76
2021/11/09 03:56:50;;;;;;;23.38;12.82;;;3.40;99.90;;;;;;5007644;28;20041;-76
2021/11/09 03:59:22;;;;;;;19.15;11.40;;;3.20;99.90;;;;;;5000548;28;20026;-78
2021/11/09 04:02:42;;;;;;;22.40;13.25;;;3.10;99.90;;;;;;5003908;28;20029;-76
2021/11/09 04:04:40;;;;;;;15.90;10.70;;;3.10;99.90;;;;;;4992780;28;20029;-76
2021/11/09 04:07:10;;;;;;;16.13;11.13;;;3.10;99.90;;;;;;5004037;28;20475;-76
2021/11/09 04:20:42;;;;;;;25.77;11.68;;;2.80;99.90;;;;;;5012458;28;20076;-77
2021/11/09 05:01:17;;;;;;;19.40;11.85;;;2.30;99.90;;;;;;5000475;28;20033;-76
2021/11/09 05:08:44;;;;;;;18.38;12.35;;;2.20;99.90;;;;;;5032718;28;20021;-75
2021/11/09 05:11:10;;;;;;;19.63;12.05;;;2.10;99.90;;;;;;5026978;28;20045;-76
2021/11/09 05:13:36;;;;;;;22.33;13.68;;;2.10;99.90;;;;;;5028304;28;20009;-76
2021/11/09 05:16:02;;;;;;;20.60;12.63;;;2.10;99.90;;;;;;5015711;28;20462;-76
2021/11/09 05:18:27;;;;;;;25.83;13.55;;;2.10;99.90;;;;;;5009724;28;20034;-76
2021/11/09 05:20:53;;;;;;;21.25;11.95;;;2.10;99.90;;;;;;5018017;28;20030;-76
2021/11/09 05:23:20;;;;;;;21.38;13.40;;;2.10;99.90;;;;;;5015886;28;20025;-76
2021/11/09 05:25:47;;;;;;;18.05;12.18;;;2.00;99.90;;;;;;5004783;28;20022;-76
2021/11/09 05:28:14;;;;;;;23.15;13.15;;;2.10;99.90;;;;;;5033970;23;20050;-78
2021/11/09 05:30:45;;;;;;;24.98;12.20;;;2.20;99.90;;;;;;5022227;28;20485;-78
2021/11/09 05:33:10;;;;;;;24.85;12.55;;;2.10;99.90;;;;;;5018946;28;20077;-78
2021/11/09 05:35:36;;;;;;;27.05;15.05;;;2.10;99.90;;;;;;5023280;28;20205;-77
2021/11/09 05:38:04;;;;;;;19.75;12.80;;;2.00;99.90;;;;;;5016712;28;20038;-79
2021/11/09 05:40:33;;;;;;;18.33;11.70;;;2.00;99.90;;;;;;5006504;28;20022;-79
2021/11/09 05:43:00;;;;;;;24.40;12.43;;;2.00;99.90;;;;;;5014414;28;20022;-78
2021/11/09 05:45:26;;;;;;;22.00;13.43;;;2.00;99.90;;;;;;5018305;28;20026;-83
2021/11/09 05:47:52;;;;;;;24.35;14.00;;;1.90;99.90;;;;;;5007112;28;20113;-77
2021/11/09 05:50:24;;;;;;;22.27;14.73;;;1.90;99.90;;;;;;5010482;28;20022;-82
2021/11/09 05:52:50;;;;;;;25.73;14.57;;;1.90;99.90;;;;;;5009910;28;20023;-79
2021/11/09 05:55:16;;;;;;;28.15;15.75;;;2.00;99.90;;;;;;5005310;28;20033;-78
2021/11/09 05:57:42;;;;;;;32.58;14.68;;;1.90;99.90;;;;;;5010435;28;20022;-80
2021/11/09 06:00:11;;;;;;;27.60;14.25;;;1.90;99.90;;;;;;5025504;28;20034;-78
2021/11/09 06:02:37;;;;;;;26.15;14.88;;;1.90;99.90;;;;;;5003151;28;20019;-79
2021/11/09 06:05:04;;;;;;;26.08;13.23;;;1.90;99.90;;;;;;5005723;28;20053;-78
2021/11/09 06:07:29;;;;;;;29.92;16.33;;;1.80;99.90;;;;;;5006876;28;20018;-78
2021/11/09 06:09:55;;;;;;;27.35;15.25;;;1.80;99.90;;;;;;5006370;28;20094;-77
2021/11/09 06:12:20;;;;;;;22.33;13.55;;;1.90;99.90;;;;;;5005743;28;20027;-77
2021/11/09 06:14:46;;;;;;;28.13;14.00;;;1.80;99.90;;;;;;5009680;28;20030;-78
2021/11/09 06:17:12;;;;;;;21.83;13.93;;;1.80;99.90;;;;;;5005091;28;20416;-78
2021/11/09 06:19:37;;;;;;;27.17;14.45;;;1.90;99.90;;;;;;5004676;28;20038;-78
2021/11/09 06:22:03;;;;;;;28.08;15.30;;;1.90;99.90;;;;;;5003605;28;20086;-78
2021/11/09 06:24:29;;;;;;;32.05;16.65;;;1.90;99.90;;;;;;5005976;28;20057;-78
2021/11/09 06:26:55;;;;;;;29.33;16.42;;;1.80;99.90;;;;;;5003824;28;20018;-78
2021/11/09 06:29:20;;;;;;;30.30;15.77;;;1.80;99.90;;;;;;4999183;28;20038;-77
2021/11/09 06:31:46;;;;;;;28.08;15.00;;;2.00;99.90;;;;;;5003363;28;20034;-79
2021/11/09 06:34:12;;;;;;;21.98;13.30;;;1.90;99.90;;;;;;5006108;28;20022;-78
2021/11/09 06:36:37;;;;;;;28.83;16.30;;;1.90;99.90;;;;;;5012436;28;20137;-78
2021/11/09 06:39:04;;;;;;;25.17;14.07;;;2.00;99.90;;;;;;5018458;28;20081;-79
2021/11/09 06:41:29;;;;;;;24.50;13.98;;;2.10;99.90;;;;;;5005659;28;20106;-78
2021/11/09 06:43:55;;;;;;;26.02;13.40;;;2.10;99.90;;;;;;5006879;28;20137;-78
2021/11/09 06:46:21;;;;;;;25.92;14.27;;;2.20;99.90;;;;;;5022527;28;20046;-78
2021/11/09 06:48:47;;;;;;;29.85;15.80;;;2.20;99.90;;;;;;5004787;28;20085;-78
2021/11/09 06:51:13;;;;;;;25.98;13.85;;;2.20;99.90;;;;;;5005287;28;20034;-79
2021/11/09 06:53:39;;;;;;;23.00;12.55;;;2.40;99.90;;;;;;5007162;28;20038;-79
2021/11/09 06:56:05;;;;;;;22.10;13.98;;;2.30;99.90;;;;;;5004430;28;20090;-79
2021/11/09 06:58:31;;;;;;;25.20;14.20;;;2.30;99.90;;;;;;5002786;28;20029;-79
2021/11/09 07:00:57;;;;;;;26.60;13.27;;;2.30;99.90;;;;;;5004280;28;20026;-81
2021/11/09 07:03:23;;;;;;;26.92;14.10;;;2.50;99.90;;;;;;5008535;28;20041;-78
2021/11/09 07:05:49;;;;;;;24.73;14.90;;;2.50;99.90;;;;;;5012223;28;20074;-78
2021/11/09 07:08:15;;;;;;;23.30;14.65;;;2.50;99.90;;;;;;5017201;28;20018;-78
2021/11/09 07:10:40;;;;;;;24.40;14.18;;;2.50;99.90;;;;;;5014991;28;20030;-78
2021/11/09 07:13:06;;;;;;;24.83;13.88;;;2.50;99.90;;;;;;5029441;28;20098;-77
2021/11/09 07:15:32;;;;;;;23.92;13.95;;;2.60;99.90;;;;;;5010859;28;20019;-78
2021/11/09 07:17:57;;;;;;;27.58;15.00;;;2.60;99.90;;;;;;5011016;28;20110;-78
2021/11/09 07:20:23;;;;;;;25.58;14.68;;;2.80;99.90;;;;;;5006592;28;20030;-79
2021/11/09 07:22:50;;;;;;;23.88;14.50;;;2.80;99.90;;;;;;5001661;28;20022;-78
2021/11/09 07:25:16;;;;;;;30.40;13.93;;;2.80;99.90;;;;;;5000787;28;20056;-80
2021/11/09 07:27:42;;;;;;;29.20;16.63;;;2.90;99.90;;;;;;5001086;28;20035;-79
2021/11/09 07:30:11;;;;;;;26.83;15.95;;;2.90;99.90;;;;;;5003093;28;20037;-78
2021/11/09 07:32:37;;;;;;;34.78;17.10;;;2.90;99.90;;;;;;5005751;28;20035;-78
2021/11/09 07:35:08;;;;;;;27.08;14.75;;;3.10;99.90;;;;;;5009302;28;20030;-80
2021/11/09 07:37:34;;;;;;;23.02;14.27;;;3.20;99.90;;;;;;5001826;28;20037;-80
2021/11/09 07:40:00;;;;;;;24.20;14.15;;;3.30;99.90;;;;;;5014873;28;20027;-78
2021/11/09 07:42:25;;;;;;;24.70;15.93;;;3.20;99.90;;;;;;5003772;28;20046;-78
2021/11/09 07:44:53;;;;;;;26.08;14.75;;;3.10;99.90;;;;;;5003533;28;20026;-80
2021/11/09 07:47:19;;;;;;;25.65;15.25;;;3.10;99.90;;;;;;5006604;28;20033;-79
2021/11/09 07:49:46;;;;;;;29.40;14.57;;;3.20;99.90;;;;;;5001548;28;20026;-80
2021/11/09 07:52:12;;;;;;;25.02;14.45;;;3.30;99.90;;;;;;5002086;28;20045;-80
2021/11/09 07:54:43;;;;;;;25.73;16.02;;;3.50;99.90;;;;;;5001418;28;20067;-80
2021/11/09 07:57:14;;;;;;;31.92;15.45;;;3.40;99.90;;;;;;5001282;28;20049;-79
2021/11/09 08:02:44;;;;;;;29.58;14.98;;;3.50;99.90;;;;;;4992919;28;20034;-80
2021/11/09 08:05:11;;;;;;;29.58;16.25;;;3.70;99.90;;;;;;5005877;28;20033;-79
2021/11/09 08:07:49;;;;;;;28.40;15.80;;;3.80;99.90;;;;;;5006311;28;20153;-81
2021/11/09 08:10:15;;;;;;;25.55;14.13;;;3.80;99.90;;;;;;5007105;28;20026;-79
2021/11/09 08:12:40;;;;;;;24.73;13.65;;;3.80;99.90;;;;;;5001613;28;20041;-79
2021/11/09 08:15:06;;;;;;;23.42;15.13;;;3.80;99.90;;;;;;4997503;28;20018;-79
2021/11/09 08:17:32;;;;;;;27.10;13.48;;;3.80;99.90;;;;;;5001579;28;20022;-78
2021/11/09 08:19:57;;;;;;;26.48;14.35;;;3.90;99.90;;;;;;4990130;28;20110;-78
2021/11/09 08:22:24;;;;;;;27.30;14.50;;;3.90;99.90;;;;;;4991707;28;20023;-78
2021/11/09 08:24:49;;;;;;;22.00;12.95;;;4.00;99.90;;;;;;4996179;28;20023;-77
2021/11/09 08:27:15;;;;;;;27.50;15.30;;;4.10;99.90;;;;;;4999453;28;20030;-77
2021/11/09 08:29:49;;;;;;;18.58;12.10;;;4.20;99.90;;;;;;4996832;28;20392;-78
2021/11/09 08:32:14;;;;;;;19.23;12.55;;;4.20;99.90;;;;;;4987498;28;20057;-77
2021/11/09 08:34:40;;;;;;;22.75;12.60;;;4.30;99.90;;;;;;4993073;28;20026;-79
2021/11/09 08:37:06;;;;;;;18.80;11.52;;;4.50;99.90;;;;;;4997063;28;20027;-77
2021/11/09 08:39:34;;;;;;;19.90;10.73;;;4.50;99.90;;;;;;4995711;28;20038;-78
2021/11/09 08:44:29;;;;;;;12.65;10.38;;;4.70;99.90;;;;;;4999802;28;20064;-77
2021/11/09 08:46:57;;;;;;;18.08;9.82;;;4.80;99.90;;;;;;4998306;28;20015;-77
2021/11/09 08:49:25;;;;;;;11.23;8.02;;;4.90;99.90;;;;;;4995458;28;20509;-79
2021/11/09 08:51:54;;;;;;;15.38;9.88;;;5.00;99.90;;;;;;4995040;28;20031;-79
2021/11/09 08:54:25;;;;;;;10.65;9.55;;;5.10;99.90;;;;;;4994691;28;20486;-78
2021/11/09 09:05:06;;;;;;;17.13;9.05;;;5.60;99.90;;;;;;4996451;28;20046;-78
2021/11/09 09:07:36;;;;;;;15.63;10.02;;;5.70;99.90;;;;;;4997186;28;20026;-77
2021/11/09 09:10:04;;;;;;;17.90;10.40;;;5.80;99.90;;;;;;4997138;28;20046;-80
2021/11/09 09:12:30;;;;;;;15.85;8.93;;;5.60;99.90;;;;;;4997440;28;20496;-78
2021/11/09 09:14:57;;;;;;;13.73;9.30;;;5.70;99.90;;;;;;5001554;28;20021;-79
2021/11/09 09:17:24;;;;;;;15.45;9.85;;;5.90;99.90;;;;;;5002134;28;20138;-78
2021/11/09 09:22:25;;;;;;;17.00;9.35;;;5.90;99.90;;;;;;5007568;28;20026;-78
2021/11/09 09:30:03;;;;;;;14.73;8.15;;;6.10;99.90;;;;;;5004443;28;20032;-78
2021/11/09 09:57:07;;;;;;;9.27;5.95;;;7.40;99.90;;;;;;5017489;28;20025;-79
2021/11/09 09:59:36;;;;;;;16.25;7.18;;;7.50;99.90;;;;;;5016892;28;20042;-79
2021/11/09 10:02:22;;;;;;;7.22;5.15;;;7.60;99.90;;;;;;5002681;28;20030;-78
2021/11/09 10:04:50;;;;;;;13.50;4.43;;;7.70;99.90;;;;;;4996186;28;20057;-79
2021/11/09 10:07:29;;;;;;;8.32;3.97;;;7.80;99.90;;;;;;4997331;28;20046;-78
2021/11/09 10:09:55;;;;;;;5.78;3.83;;;7.90;99.90;;;;;;5016195;28;20034;-78
2021/11/09 10:12:25;;;;;;;8.75;4.30;;;8.10;99.90;;;;;;5018051;28;20015;-78
2021/11/09 10:14:54;;;;;;;8.43;3.40;;;8.20;99.90;;;;;;5015130;28;20025;-79
2021/11/09 10:17:25;;;;;;;9.00;4.18;;;8.30;99.90;;;;;;5015135;28;20022;-78
2021/11/09 10:19:53;;;;;;;6.47;3.85;;;8.30;99.90;;;;;;5005181;28;20022;-78
2021/11/09 10:22:31;;;;;;;5.03;3.25;;;8.40;99.90;;;;;;5006929;28;20034;-77
2021/11/09 10:25:00;;;;;;;8.40;4.90;;;8.50;99.90;;;;;;4988988;28;20031;-79
2021/11/09 10:27:28;;;;;;;9.90;3.55;;;8.60;99.90;;;;;;5007702;28;20477;-79
2021/11/09 10:29:55;;;;;;;8.40;3.53;;;8.60;99.90;;;;;;4999549;28;20030;-79
2021/11/09 10:32:26;;;;;;;8.23;3.22;;;8.70;99.90;;;;;;5011946;28;20065;-79
2021/11/09 10:34:54;;;;;;;7.53;3.97;;;8.80;99.90;;;;;;5009875;28;20057;-79
2021/11/09 10:37:27;;;;;;;8.95;3.20;;;8.90;99.90;;;;;;5006546;28;20023;-79
2021/11/09 10:39:55;;;;;;;10.68;3.67;;;8.90;99.90;;;;;;5008590;28;20099;-80
2021/11/09 10:42:26;;;;;;;8.50;3.17;;;8.90;99.90;;;;;;5011622;28;20029;-81
2021/11/09 10:45:02;;;;;;;6.97;3.05;;;8.90;99.90;;;;;;5010695;28;20022;-79
2021/11/09 10:48:07;;;;;;;;;;;;;;;;;;;;;
2021/11/09 10:50:39;;;;;;;4.20;2.25;;;9.10;99.90;;;;;;5010676;28;20057;-78
2021/11/09 10:53:35;;;;;;;8.88;3.85;;;9.10;99.90;;;;;;5011805;28;20019;-78
2021/11/09 11:04:35;;;;;;;6.07;2.72;;;9.50;99.90;;;;;;5012100;28;20073;-79
2021/11/09 11:07:03;;;;;;;6.05;2.95;;;9.50;99.90;;;;;;5011202;28;20034;-78
2021/11/09 11:09:29;;;;;;;5.28;2.47;;;9.50;99.90;;;;;;5010079;28;20007;-79
2021/11/09 11:11:58;;;;;;;5.68;2.35;;;9.50;99.90;;;;;;5015117;28;20053;-79
2021/11/09 11:14:28;;;;;;;4.13;2.60;;;9.70;99.90;;;;;;5013337;28;20038;-79
2021/11/09 11:17:00;;;;;;;3.47;2.38;;;9.80;99.90;;;;;;5009971;28;20049;-81
2021/11/09 11:19:29;;;;;;;6.53;2.60;;;9.90;99.90;;;;;;5014895;28;20022;-79
2021/11/09 11:21:57;;;;;;;8.02;2.42;;;9.90;99.90;;;;;;5005569;28;20015;-78
2021/11/09 11:24:24;;;;;;;4.90;2.45;;;9.90;99.90;;;;;;5025942;28;20026;-78
2021/11/09 11:26:52;;;;;;;5.78;3.33;;;9.90;99.90;;;;;;5006244;28;20101;-78
2021/11/09 11:29:19;;;;;;;7.10;2.83;;;10.00;99.90;;;;;;5009892;28;20038;-78
2021/11/09 11:31:46;;;;;;;4.63;2.38;;;10.10;99.90;;;;;;5012294;28;20042;-77
2021/11/09 11:34:13;;;;;;;7.57;2.70;;;10.20;99.90;;;;;;5014108;28;20042;-78
2021/11/09 11:36:39;;;;;;;7.20;2.53;;;10.10;99.90;;;;;;5005908;28;20033;-78
2021/11/09 11:39:08;;;;;;;8.05;2.78;;;10.20;99.90;;;;;;5006375;28;20050;-77
2021/11/09 11:41:38;;;;;;;7.82;2.80;;;10.20;99.90;;;;;;5006888;28;20129;-77
2021/11/09 11:44:06;;;;;;;5.90;2.80;;;10.20;99.90;;;;;;5007536;28;20049;-78
2021/11/09 11:46:31;;;;;;;6.22;3.33;;;10.30;99.90;;;;;;5014444;28;20034;-79
2021/11/09 11:48:59;;;;;;;8.07;4.00;;;10.30;99.90;;;;;;5017106;28;20033;-77
2021/11/09 11:51:27;;;;;;;3.90;2.90;;;10.20;99.90;;;;;;5008232;28;20041;-77
2021/11/09 11:53:56;;;;;;;8.48;3.00;;;10.30;99.90;;;;;;4992614;28;20023;-76
2021/11/09 11:56:51;;;;;;;6.88;2.90;;;10.40;99.90;;;;;;4996528;28;20023;-77
2021/11/09 11:59:23;;;;;;;6.72;2.50;;;10.60;99.90;;;;;;5004569;28;20114;-78
2021/11/09 12:01:59;;;;;;;7.80;2.80;;;10.60;99.90;;;;;;5002232;28;20049;-79
2021/11/09 12:04:44;;;;;;;4.68;3.08;;;10.60;99.90;;;;;;5002873;28;20058;-78
2021/11/09 12:07:20;;;;;;;5.80;2.30;;;10.60;99.90;;;;;;5008358;28;20033;-78
2021/11/09 12:09:51;;;;;;;6.68;2.92;;;10.70;99.90;;;;;;5004480;28;20033;-77
2021/11/09 12:12:23;;;;;;;3.53;1.77;;;10.70;99.90;;;;;;5013463;28;20026;-79
2021/11/09 12:14:57;;;;;;;9.32;2.15;;;10.80;99.90;;;;;;5013319;28;20465;-79
2021/11/09 12:17:40;;;;;;;7.00;3.28;;;10.80;99.90;;;;;;5002834;28;20036;-78
2021/11/09 12:20:19;;;;;;;3.20;2.10;;;10.90;99.90;;;;;;5020626;28;20108;-78
2021/11/09 12:22:51;;;;;;;5.30;2.03;;;11.00;99.90;;;;;;5008740;28;20023;-78
2021/11/09 12:25:36;;;;;;;4.00;2.20;;;10.90;99.90;;;;;;5005694;28;20042;-78
2021/11/09 12:28:08;;;;;;;6.15;2.58;;;10.80;99.90;;;;;;5005273;28;20036;-80
2021/11/09 12:30:34;;;;;;;4.85;2.47;;;10.90;99.90;;;;;;5004748;28;20034;-78
2021/11/09 12:33:05;;;;;;;4.80;2.08;;;10.90;99.90;;;;;;5008190;28;20037;-80
2021/11/09 12:35:34;;;;;;;5.82;1.90;;;10.90;99.90;;;;;;5002754;28;20097;-78
2021/11/09 12:38:01;;;;;;;5.40;2.15;;;11.00;99.90;;;;;;5004661;28;20050;-78
2021/11/09 12:40:48;;;;;;;5.38;1.95;;;11.10;99.90;;;;;;5002034;28;20050;-78
2021/11/09 12:43:19;;;;;;;6.55;2.10;;;11.10;99.90;;;;;;5006772;28;20038;-78
2021/11/09 12:45:52;;;;;;;8.95;2.58;;;11.10;99.90;;;;;;5004741;28;20026;-78
2021/11/09 12:48:25;;;;;;;7.72;1.98;;;11.10;99.90;;;;;;5005857;28;20109;-79
2021/11/09 12:50:56;;;;;;;7.32;1.83;;;11.20;99.90;;;;;;5005061;28;20027;-78
2021/11/09 12:53:23;;;;;;;9.02;4.20;;;11.10;99.90;;;;;;5002957;28;20030;-78
2021/11/09 12:56:14;;;;;;;5.13;1.70;;;11.20;99.90;;;;;;5006742;28;20034;-77
2021/11/09 12:58:50;;;;;;;5.57;1.85;;;11.10;99.90;;;;;;4995538;28;20477;-78
2021/11/09 13:04:29;;;;;;;4.25;2.40;;;11.10;99.90;;;;;;5004169;28;20053;-77
2021/11/09 13:09:44;;;;;;;7.43;3.10;;;11.10;99.90;;;;;;5003190;28;20078;-79
2021/11/09 13:12:19;;;;;;;5.72;2.30;;;11.10;99.90;;;;;;5018743;28;20106;-78
2021/11/09 13:14:49;;;;;;;6.32;1.90;;;11.20;99.90;;;;;;5008096;28;20108;-78
2021/11/09 13:17:21;;;;;;;10.50;1.80;;;11.30;99.90;;;;;;4998806;28;20033;-79
2021/11/09 13:20:48;;;;;;;5.85;2.42;;;11.40;99.90;;;;;;5005564;28;20082;-80
2021/11/09 13:23:07;;;;;;;2.60;1.80;;;11.30;99.90;;;;;;4998935;28;20026;-80
2021/11/09 13:25:39;;;;;;;4.65;1.98;;;11.10;99.90;;;;;;5010091;28;20074;-79
2021/11/09 13:28:36;;;;;;;5.95;2.00;;;11.10;99.90;;;;;;5009782;28;20034;-79
2021/11/09 13:31:07;;;;;;;5.43;1.95;;;11.20;99.90;;;;;;5009613;28;20033;-79
2021/11/09 13:33:40;;;;;;;5.65;2.00;;;11.20;99.90;;;;;;5002431;28;20081;-80
2021/11/09 13:36:07;;;;;;;6.15;2.28;;;11.20;99.90;;;;;;4999644;28;20390;-80
2021/11/09 13:38:39;;;;;;;5.95;2.05;;;11.10;99.90;;;;;;5002272;28;20030;-79
2021/11/09 13:41:29;;;;;;;4.82;1.90;;;11.20;99.90;;;;;;4998322;28;20022;-79
2021/11/09 13:44:02;;;;;;;6.47;3.10;;;11.20;99.90;;;;;;5001661;28;20039;-79
2021/11/09 13:46:31;;;;;;;7.90;2.00;;;11.10;99.90;;;;;;5001136;28;20130;-79
2021/11/09 13:49:05;;;;;;;5.00;1.98;;;11.10;99.90;;;;;;5006869;28;20049;-78
2021/11/09 13:51:39;;;;;;;4.82;2.10;;;11.10;99.90;;;;;;5005947;28;20023;-78
2021/11/09 13:54:14;;;;;;;8.38;2.45;;;11.10;99.90;;;;;;5021535;28;20038;-80
2021/11/09 13:56:44;;;;;;;7.03;2.08;;;11.10;99.90;;;;;;5004378;28;20034;-78
2021/11/09 13:59:11;;;;;;;5.47;1.98;;;11.00;99.90;;;;;;4994769;28;20102;-79
2021/11/09 14:01:57;;;;;;;5.00;1.92;;;11.10;99.90;;;;;;5003386;28;20057;-80
2021/11/09 14:18:31;;;;;;;5.97;1.92;;;10.90;99.90;;;;;;4995951;28;20106;-79
2021/11/09 14:21:01;;;;;;;3.17;1.63;;;10.90;99.90;;;;;;5013065;28;20081;-80
2021/11/09 14:23:35;;;;;;;3.45;1.90;;;10.90;99.90;;;;;;5013885;28;20030;-80
2021/11/09 14:26:20;;;;;;;2.75;1.50;;;10.90;99.90;;;;;;5011711;28;20026;-80
2021/11/09 14:28:46;;;;;;;6.40;2.38;;;10.80;99.90;;;;;;5012137;28;20042;-78
2021/11/09 14:31:14;;;;;;;8.93;2.33;;;10.80;99.90;;;;;;4999109;28;20183;-80
2021/11/09 14:33:40;;;;;;;4.57;1.55;;;10.80;99.90;;;;;;5003624;28;20100;-79
2021/11/09 14:36:26;;;;;;;3.55;2.10;;;10.80;99.90;;;;;;5007812;28;20034;-81
2021/11/09 14:39:16;;;;;;;5.25;1.67;;;10.70;99.90;;;;;;5007904;28;20027;-78
2021/11/09 14:42:12;;;;;;;5.00;1.55;;;10.70;99.90;;;;;;5010523;28;20030;-78
2021/11/09 14:45:08;;;;;;;5.72;2.05;;;10.70;99.90;;;;;;5007999;28;20043;-78
2021/11/09 14:47:47;;;;;;;11.50;2.88;;;10.70;99.90;;;;;;5007453;28;20050;-79
2021/11/09 14:50:23;;;;;;;6.60;2.58;;;10.70;99.90;;;;;;5009751;28;20049;-79
2021/11/09 14:52:51;;;;;;;6.57;1.92;;;10.60;99.90;;;;;;5010083;28;20077;-78
2021/11/09 14:55:19;;;;;;;4.85;2.10;;;10.60;99.90;;;;;;5010220;28;20036;-78
2021/11/09 14:57:46;;;;;;;3.55;1.80;;;10.60;99.90;;;;;;5009789;28;20022;-79
2021/11/09 15:00:14;;;;;;;6.30;1.92;;;10.60;99.90;;;;;;5010543;28;20018;-78
2021/11/09 15:02:40;;;;;;;6.75;2.22;;;10.50;99.90;;;;;;5013122;28;20030;-80
2021/11/09 15:05:12;;;;;;;3.67;2.15;;;10.50;99.90;;;;;;5004867;28;20045;-79
2021/11/09 15:07:55;;;;;;;6.85;1.83;;;10.40;99.90;;;;;;5004335;28;20173;-80
2021/11/09 15:31:32;;;;;;;6.03;1.88;;;9.90;99.90;;;;;;5006764;28;20022;-79
2021/11/09 15:37:21;;;;;;;4.00;2.40;;;9.90;99.90;;;;;;5011495;28;20133;-79
2021/11/09 15:39:44;;;;;;;6.20;2.38;;;9.80;99.90;;;;;;5008454;28;20033;-79
2021/11/09 15:42:13;;;;;;;4.45;2.03;;;9.80;99.90;;;;;;5014626;28;20030;-80
2021/11/09 15:44:39;;;;;;;8.80;3.97;;;9.80;99.90;;;;;;5007592;28;20019;-79
2021/11/09 15:47:05;;;;;;;5.18;2.10;;;9.70;99.90;;;;;;5009162;28;20057;-79
2021/11/09 15:49:30;;;;;;;6.78;2.47;;;9.60;99.90;;;;;;5009155;28;20114;-77
2021/11/09 15:51:57;;;;;;;4.88;1.85;;;9.60;99.90;;;;;;4993493;28;20073;-76
2021/11/09 15:54:23;;;;;;;6.18;2.78;;;9.60;99.90;;;;;;4991007;28;20057;-77
2021/11/09 15:56:50;;;;;;;7.43;3.25;;;9.50;99.90;;;;;;4997155;28;20027;-76
2021/11/09 15:59:16;;;;;;;3.92;1.95;;;9.50;99.90;;;;;;5001866;28;20090;-77
2021/11/09 16:01:42;;;;;;;5.55;2.40;;;9.40;99.90;;;;;;4993444;28;20023;-77